Latest Weather Observations for Naracoorte

IDS60801

Issued at 1:01 pm CST Tuesday 1 September 2015 (issued every 30 minutes, with the page automatically refreshed every 10 minutes)

About weather observations | Map of weather stations | Latest weather observations for SA | Other Formats
Station Details ID: 026099 Name: NARACOORTE AERODROME Lat: -36.98 Lon: 140.73 Height: 49.72 m
Data from the previous 72 hours. | See also: Recent months at Naracoorte
Date/Time
CST
Temp
°C
App
Temp
°C
Dew
Point
Rel
Hum
%
Delta-T
°C
Wind Press
QNH
hPa
Press
MSL
hPa
Rain
since 9 am
mm
Dir
 
Spd
km/h
Gust
km/h
Spd
kts
Gust
kts
01/01:00pm 18.3 14.2 7.7 50 5.4 NNE 19 26 10 14 1011.5 1011.5 0.0
01/12:30pm 17.5 12.9 6.7 49 5.4 NNE 20 26 11 14 1012.2 1012.2 0.0
01/12:00pm 15.7 11.5 5.6 51 4.8 NNE 17 22 9 12 1012.8 1012.8 0.0
01/11:30am 15.3 11.3 6.6 56 4.2 NNE 17 24 9 13 1013.6 1013.7 0.0
01/11:00am 14.3 9.8 6.2 58 3.9 NNE 19 24 10 13 1014.1 1014.2 0.0
01/10:30am 13.1 9.2 7.1 67 2.9 NE 17 22 9 12 1014.4 1014.5 0.0
01/10:00am 12.5 7.8 6.1 65 3.0 NE 20 30 11 16 1014.5 1014.6 0.0
01/09:30am 11.1 5.9 5.4 68 2.6 NE 22 30 12 16 1014.7 1014.8 0.0
01/09:00am 9.5 5.6 5.3 75 1.9 NNE 15 22 8 12 1015.1 1015.2 0.0
01/08:30am 8.2 3.3 4.2 76 1.7 NE 19 26 10 14 1015.1 1015.2 0.0
01/08:00am 7.0 0.7 3.8 80 1.4 NE 26 32 14 17 1015.1 1015.2 0.0
01/07:30am 6.3 0.3 3.5 82 1.2 NE 24 32 13 17 1015.0 1015.1 0.0
01/07:00am 6.1 -0.3 3.3 82 1.2 NE 26 32 14 17 1015.0 1015.1 0.0
01/06:30am 5.9 -0.9 3.1 82 1.2 NE 28 33 15 18 1015.0 1015.1 0.0
01/06:00am 6.0 0.0 3.2 82 1.2 NE 24 32 13 17 1015.1 1015.2 0.0
01/05:30am 5.6 -0.4 3.1 84 1.0 NE 24 32 13 17 1015.2 1015.3 0.0
01/05:00am 5.1 -1.0 2.8 85 0.9 NE 24 30 13 16 1015.1 1015.2 0.0
01/04:30am 4.9 -0.8 2.6 85 0.9 NE 22 28 12 15 1015.3 1015.4 0.0
01/04:00am 4.6 -0.8 2.6 87 0.8 NE 20 26 11 14 1015.3 1015.4 0.0
01/03:30am 4.8 -0.4 2.7 86 0.9 NE 19 22 10 12 1015.2 1015.3 0.0
01/03:00am 4.9 -0.8 2.8 86 0.9 NE 22 28 12 15 1015.6 1015.7 0.0
01/02:30am 4.8 -0.6 2.7 86 0.9 NE 20 28 11 15 1015.9 1016.0 0.0
01/02:00am 4.8 -0.5 2.8 87 0.8 NE 20 24 11 13 1016.5 1016.6 0.0
01/01:30am 4.8 -0.5 2.8 87 0.8 NE 20 24 11 13 1017.0 1017.0 0.0
01/01:00am 5.0 0.3 3.0 87 0.8 ENE 17 22 9 12 1017.4 1017.4 0.0
01/12:30am 5.0 1.1 3.2 88 0.7 ENE 13 17 7 9 1017.5 1017.5 0.0
01/12:00am 4.7 1.5 3.0 89 0.7 NE 9 13 5 7 1017.8 1017.8 0.0
 
Date/Time
CST
Temp
°C
App
Temp
°C
Dew
Point
Rel
Hum
%
Delta-T
°C
Wind Press
QNH
hPa
Press
MSL
hPa
Rain
since 9 am
mm
Dir
 
Spd
km/h
Gust
km/h
Spd
kts
Gust
kts
31/11:30pm 4.6 1.4 2.9 89 0.7 ENE 9 11 5 6 1017.9 1017.9 0.0
31/11:00pm 5.0 1.8 3.2 88 0.7 ENE 9 13 5 7 1018.2 1018.2 0.0
31/10:30pm 4.7 1.1 2.9 88 0.7 E 11 15 6 8 1018.4 1018.4 0.0
31/10:00pm 5.4 1.5 3.4 87 0.8 E 13 15 7 8 1018.6 1018.6 0.0
31/09:30pm 5.9 2.1 3.7 86 0.9 E 13 17 7 9 1018.7 1018.7 0.0
31/09:00pm 6.2 2.0 3.9 85 1.0 E 15 17 8 9 1018.7 1018.7 0.0
31/08:30pm 6.2 2.5 4.5 89 0.7 E 13 17 7 9 1018.7 1018.7 0.0
31/08:00pm 3.7 0.7 2.1 89 0.6 ESE 7 9 4 5 1018.8 1018.8 0.0
31/07:30pm 4.6 2.7 2.8 88 0.7 SE 2 6 1 3 1018.9 1018.9 0.0
31/07:00pm 6.3 5.0 4.3 87 0.9 CALM 0 0 0 0 1018.9 1018.9 0.0
31/06:30pm 7.6 6.6 5.4 86 1.0 CALM 0 0 0 0 1018.6 1018.6 0.0
31/06:00pm 8.1 6.0 5.6 84 1.1 SSW 6 7 3 4 1018.6 1018.6 0.0
31/05:30pm 10.4 8.2 6.4 76 1.9 S 7 9 4 5 1018.6 1018.6 0.0
31/05:00pm 11.8 8.8 5.9 67 2.8 S 11 13 6 7 1018.3 1018.3 0.0
31/04:30pm 12.5 9.6 4.5 58 3.6 S 9 13 5 7 1018.4 1018.4 0.0
31/04:00pm 13.0 11.1 4.9 58 3.7 ESE 4 9 2 5 1018.5 1018.5 0.0
31/03:30pm 12.9 8.8 4.6 57 3.8 SSE 15 20 8 11 1018.7 1018.7 0.0
31/03:00pm 13.3 10.6 5.5 59 3.7 SSE 9 13 5 7 1018.8 1018.8 0.0
31/02:30pm 13.0 10.0 6.1 63 3.3 SSW 11 15 6 8 1019.2 1019.2 0.0
31/02:00pm 13.2 10.1 5.6 60 3.6 SSW 11 15 6 8 1019.6 1019.6 0.0
31/01:30pm 13.0 10.7 5.9 62 3.3 W 7 13 4 7 1020.1 1020.1 0.0
31/01:00pm 12.4 9.7 5.6 63 3.2 SSW 9 15 5 8 1020.5 1020.5 0.0
31/12:30pm 12.4 9.5 4.6 59 3.6 S 9 13 5 7 1020.9 1020.9 0.0
31/12:00pm 12.4 10.2 5.3 62 3.3 W 6 9 3 5 1021.2 1021.2 0.0
31/11:30am 11.8 10.7 5.2 64 3.0 CALM 0 0 0 0 1021.5 1021.5 0.0
31/11:00am 11.4 9.5 4.8 64 3.0 ESE 4 9 2 5 1021.9 1021.9 0.0
31/10:30am 10.7 8.5 5.5 70 2.4 ENE 6 9 3 5 1022.1 1022.1 0.0
31/10:00am 9.9 6.7 5.1 72 2.2 ESE 11 17 6 9 1022.2 1022.2 0.0
31/09:30am 9.4 5.8 6.7 83 1.3 ENE 15 19 8 10 1022.5 1022.5 0.0
31/09:00am 7.9 5.3 6.2 89 0.8 ENE 9 13 5 7 1022.6 1022.6 0.0
31/08:30am 5.8 3.6 5.4 97 0.2 N 6 9 3 5 1022.8 1022.8 0.0
31/08:00am 3.3 1.8 3.0 98 0.1 CALM 0 0 0 0 1022.8 1022.8 0.0
31/07:30am 0.8 -1.1 0.5 98 0.1 CALM 0 0 0 0 1022.7 1022.7 0.0
31/07:00am -0.3 -2.7 -0.6 98 0.1 SSE 2 7 1 4 1022.4 1022.4 0.0
31/06:30am -0.7 -2.8 -1.0 98 0.1 CALM 0 0 0 0 1022.2 1022.2 0.0
31/06:00am -0.9 -3.1 -1.3 97 0.1 CALM 0 6 0 3 1022.2 1022.2 0.0
31/05:30am -0.5 -3.4 -0.9 97 0.1 SSE 4 7 2 4 1022.0 1022.0 0.0
31/05:00am -0.6 -2.7 -0.9 98 0.1 CALM 0 0 0 0 1021.9 1021.9 0.0
31/04:30am -0.4 -2.5 -0.8 97 0.1 CALM 0 0 0 0 1021.8 1021.8 0.0
31/04:00am 0.3 -1.7 -0.1 97 0.1 CALM 0 0 0 0 1021.8 1021.8 0.0
31/03:30am 0.6 -1.4 0.0 96 0.2 CALM 0 0 0 0 1021.9 1021.9 0.0
31/03:00am 0.8 -1.2 0.2 96 0.2 CALM 0 6 0 3 1022.1 1022.1 0.0
31/02:30am 1.0 -0.9 0.3 95 0.3 CALM 0 4 0 2 1022.4 1022.4 0.0
31/02:00am 3.3 0.0 2.6 95 0.3 E 9 11 5 6 1022.5 1022.5 0.0
31/01:30am 4.8 1.4 3.9 94 0.4 E 11 13 6 7 1022.8 1022.8 0.0
31/01:00am 5.3 1.6 4.7 96 0.3 E 13 13 7 7 1023.0 1023.0 0.0
31/12:30am 5.5 2.6 4.9 96 0.3 ESE 9 11 5 6 1023.0 1023.0 0.0
31/12:00am 4.1 1.0 3.4 95 0.3 SE 9 11 5 6 1023.3 1023.4 0.0
 
Date/Time
CST
Temp
°C
App
Temp
°C
Dew
Point
Rel
Hum
%
Delta-T
°C
Wind Press
QNH
hPa
Press
MSL
hPa
Rain
since 9 am
mm
Dir
 
Spd
km/h
Gust
km/h
Spd
kts
Gust
kts
30/11:30pm 5.6 2.7 4.9 95 0.3 SE 9 11 5 6 1023.5 1023.6 0.0
30/11:00pm 5.8 2.9 4.9 94 0.4 SE 9 11 5 6 1023.8 1023.9 0.0
30/10:30pm 6.9 3.0 5.5 91 0.6 SSE 15 19 8 10 1024.0 1024.1 0.0
30/10:00pm 8.2 5.7 6.5 89 0.8 SSE 9 15 5 8 1024.2 1024.3 0.0
30/09:30pm 9.0 5.8 6.8 86 1.0 SE 13 24 7 13 1024.4 1024.5 0.0
30/09:00pm 9.2 6.5 7.3 88 0.9 SSE 11 13 6 7 1024.4 1024.5 0.0
30/08:30pm 9.3 7.0 7.3 87 0.9 SE 9 11 5 6 1024.4 1024.5 0.0
30/08:00pm 9.7 7.1 7.6 87 1.0 SSE 11 13 6 7 1024.3 1024.4 0.0
30/07:30pm 9.5 7.1 7.1 85 1.1 SSE 9 9 5 5 1024.3 1024.4 0.0
30/07:00pm 9.6 7.6 7.2 85 1.1 SE 7 9 4 5 1024.0 1024.1 0.0
30/06:30pm 10.2 7.5 7.4 83 1.3 SSE 11 13 6 7 1023.9 1024.0 0.0
30/06:00pm 10.7 7.6 7.2 79 1.7 SSE 13 15 7 8 1023.8 1023.9 0.0
30/05:30pm 11.3 8.5 7.0 75 2.0 S 11 13 6 7 1023.6 1023.7 0.0
30/05:00pm 11.7 9.2 6.4 70 2.5 SSE 9 15 5 8 1023.6 1023.7 0.0
30/04:30pm 12.1 8.9 6.8 70 2.5 SE 13 17 7 9 1023.6 1023.7 0.0
30/04:00pm 12.7 9.6 5.6 62 3.3 SE 11 19 6 10 1023.8 1023.9 0.0
30/03:30pm 13.2 11.1 6.5 64 3.2 SW 7 13 4 7 1024.2 1024.3 0.0
30/03:00pm 12.4 10.0 6.9 69 2.6 SSE 9 13 5 7 1024.3 1024.4 0.0
30/02:30pm 13.1 10.6 6.5 64 3.1 SSE 9 15 5 8 1024.3 1024.4 0.0
30/02:00pm 12.1 10.4 5.9 66 2.9 SW 4 7 2 4 1024.6 1024.7 0.0
30/01:30pm 11.8 9.7 6.5 70 2.5 S 7 15 4 8 1024.9 1025.0 0.0
30/01:00pm 11.7 9.0 5.8 67 2.8 SE 9 13 5 7 1025.2 1025.3 0.0
30/12:30pm 11.4 9.3 5.7 68 2.6 S 6 9 3 5 1025.7 1025.8 0.0
30/12:00pm 11.1 7.1 6.8 75 2.0 ESE 17 22 9 12 1026.1 1026.2 0.0
30/11:30am 11.0 8.5 6.7 75 2.0 ESE 9 13 5 7 1026.5 1026.6 0.0
30/11:00am 10.0 6.4 6.7 80 1.6 ESE 15 24 8 13 1026.7 1026.8 0.0
30/10:30am 9.5 7.2 7.4 87 1.0 SSE 9 13 5 7 1027.3 1027.4 0.0
30/10:00am 9.3 7.0 7.4 88 0.9 SSE 9 13 5 7 1027.5 1027.6 0.0
30/09:30am 9.2 6.6 7.6 90 0.8 S 11 15 6 8 1027.7 1027.8 0.0
30/09:00am 8.5 6.3 7.7 95 0.4 S 9 13 5 7 1027.9 1028.0 0.0
30/08:30am 7.3 4.8 6.7 96 0.3 SSE 9 13 5 7 1028.0 1028.1 0.0
30/08:00am 6.6 5.7 6.0 96 0.3 CALM 0 0 0 0 1027.9 1028.0 0.0
30/07:30am 5.8 4.8 5.4 97 0.2 CALM 0 0 0 0 1027.6 1027.7 0.0
30/07:00am 4.9 3.7 4.5 97 0.2 CALM 0 0 0 0 1027.6 1027.7 0.0
30/06:30am 4.4 3.1 4.0 97 0.2 CALM 0 0 0 0 1027.3 1027.4 0.0
30/06:00am 4.8 3.6 4.4 97 0.2 CALM 0 0 0 0 1027.1 1027.2 0.0
30/05:30am 4.6 3.3 4.2 97 0.2 CALM 0 0 0 0 1027.0 1027.1 0.0
30/05:00am 4.2 2.8 3.6 96 0.2 CALM 0 0 0 0 1026.8 1026.9 0.0
30/04:30am 5.1 3.9 4.5 96 0.3 CALM 0 0 0 0 1026.9 1027.0 0.0
30/04:00am 4.8 2.4 4.2 96 0.3 S 6 7 3 4 1026.9 1027.0 0.0
30/03:30am 4.8 2.4 4.2 96 0.3 SE 6 7 3 4 1027.0 1027.1 0.0
30/03:00am 4.8 2.4 4.4 97 0.2 SSW 6 7 3 4 1027.3 1027.4 0.0
30/02:30am 4.3 2.2 3.7 96 0.2 SE 4 7 2 4 1027.7 1027.8 0.0
30/02:00am 4.1 1.6 3.5 96 0.2 SE 6 7 3 4 1027.9 1028.0 0.0
30/01:30am 3.6 0.8 3.2 97 0.2 E 7 7 4 4 1028.3 1028.4 0.0
30/01:00am 2.9 0.9 2.5 97 0.2 SE 2 7 1 4 1028.6 1028.7 0.0
30/12:30am 1.3 -1.9 0.7 96 0.2 SSE 7 9 4 5 1028.8 1028.9 0.0
30/12:00am 1.3 -2.3 0.7 96 0.2 SSE 9 9 5 5 1028.8 1028.9 0.0
 
Date/Time
CST
Temp
°C
App
Temp
°C
Dew
Point
Rel
Hum
%
Delta-T
°C
Wind Press
QNH
hPa
Press
MSL
hPa
Rain
since 9 am
mm
Dir
 
Spd
km/h
Gust
km/h
Spd
kts
Gust
kts
29/11:30pm 2.1 -1.8 1.4 95 0.3 S 11 13 6 7 1028.9 1029.0 0.0
29/11:00pm 2.7 -0.7 1.8 94 0.4 SSE 9 11 5 6 1028.9 1029.0 0.0
29/10:30pm 3.9 0.3 2.7 92 0.5 S 11 13 6 7 1029.2 1029.3 0.0
29/10:00pm 5.7 2.3 4.2 90 0.6 S 11 13 6 7 1029.0 1029.1 0.0
29/09:30pm 7.2 4.5 5.7 90 0.7 S 9 11 5 6 1028.8 1028.9 0.0
29/09:00pm 7.3 3.8 5.6 89 0.8 SSE 13 15 7 8 1029.0 1029.1 0.0
29/08:30pm 7.4 3.9 5.4 87 0.9 S 13 15 7 8 1029.0 1029.1 0.0
29/08:00pm 7.1 3.6 5.4 89 0.8 SSE 13 15 7 8 1028.8 1028.9 0.0
29/07:30pm 6.9 3.3 5.2 89 0.7 SSE 13 17 7 9 1028.6 1028.7 0.0
29/07:00pm 7.3 3.0 5.3 87 0.9 SSE 17 20 9 11 1028.5 1028.6 0.0
29/06:30pm 4.8 0.1 3.1 89 0.7 SSE 17 19 9 10 1028.2 1028.3 0.0
29/06:00pm 5.8 1.7 2.4 79 1.4 SSE 13 17 7 9 1028.0 1028.1 0.0
29/05:30pm 8.5 3.5 3.4 70 2.2 SE 19 24 10 13 1027.7 1027.8 0.0
29/05:00pm 10.1 5.1 4.5 68 2.5 SSE 20 26 11 14 1027.5 1027.6 0.0
29/04:30pm 10.8 5.8 4.5 65 2.8 SE 20 26 11 14 1027.4 1027.5 0.0
29/04:00pm 11.0 4.9 4.7 65 2.9 SSE 26 33 14 18 1027.5 1027.6 0.0
29/03:30pm 11.8 6.0 4.3 60 3.4 SSE 24 33 13 18 1027.5 1027.6 0.0
29/03:00pm 13.1 7.8 5.0 58 3.7 SSE 22 32 12 17 1027.5 1027.6 0.0
29/02:30pm 12.4 7.0 2.6 51 4.3 SSE 20 28 11 15 1027.6 1027.7 0.0
29/02:00pm 12.2 7.1 4.2 58 3.6 SSE 20 28 11 15 1027.6 1027.7 0.0
29/01:30pm 12.2 6.7 2.1 50 4.3 SSE 20 28 11 15 1027.9 1028.0 0.0

Other Formats:

Comma delimited format used in spreadsheet applications
http://www.bom.gov.au/fwo/IDS60801/IDS60801.94820.axf

JavaScript Object Notation format (JSON) in row-major order
http://www.bom.gov.au/fwo/IDS60801/IDS60801.94820.json